sensor_id;sensor_type;location;lat;lon;timestamp;temperature;humidity
9043;DHT22;4556;49.150;8.808;2022-09-29T00:00:15;5.50;99.90
9043;DHT22;4556;49.150;8.808;2022-09-29T00:02:42;7.00;99.90
9043;DHT22;4556;49.150;8.808;2022-09-29T00:05:09;7.30;99.90
9043;DHT22;4556;49.150;8.808;2022-09-29T00:07:36;5.50;99.90
9043;DHT22;4556;49.150;8.808;2022-09-29T00:10:05;7.50;99.90
9043;DHT22;4556;49.150;8.808;2022-09-29T00:12:32;5.40;99.90
9043;DHT22;4556;49.150;8.808;2022-09-29T00:14:59;4.50;99.90
9043;DHT22;4556;49.150;8.808;2022-09-29T00:17:25;8.70;99.90
9043;DHT22;4556;49.150;8.808;2022-09-29T00:19:53;5.30;99.90
9043;DHT22;4556;49.150;8.808;2022-09-29T00:22:20;5.90;99.90
9043;DHT22;4556;49.150;8.808;2022-09-29T00:24:47;8.60;99.90
9043;DHT22;4556;49.150;8.808;2022-09-29T00:27:17;7.40;99.90
9043;DHT22;4556;49.150;8.808;2022-09-29T00:29:45;5.30;99.90
9043;DHT22;4556;49.150;8.808;2022-09-29T00:32:12;5.10;99.90
9043;DHT22;4556;49.150;8.808;2022-09-29T00:34:39;5.10;99.90
9043;DHT22;4556;49.150;8.808;2022-09-29T00:37:06;5.00;99.90
9043;DHT22;4556;49.150;8.808;2022-09-29T00:39:33;5.80;99.90
9043;DHT22;4556;49.150;8.808;2022-09-29T00:41:59;5.10;99.90
9043;DHT22;4556;49.150;8.808;2022-09-29T00:44:56;5.40;99.90
9043;DHT22;4556;49.150;8.808;2022-09-29T00:47:25;5.10;99.90
9043;DHT22;4556;49.150;8.808;2022-09-29T00:49:54;5.10;99.90
9043;DHT22;4556;49.150;8.808;2022-09-29T00:52:25;5.00;99.90
9043;DHT22;4556;49.150;8.808;2022-09-29T00:54:56;5.00;99.90
9043;DHT22;4556;49.150;8.808;2022-09-29T00:57:26;5.00;99.90
9043;DHT22;4556;49.150;8.808;2022-09-29T01:00:01;5.10;99.90
9043;DHT22;4556;49.150;8.808;2022-09-29T01:02:31;6.60;99.90
9043;DHT22;4556;49.150;8.808;2022-09-29T01:04:59;7.60;99.90
9043;DHT22;4556;49.150;8.808;2022-09-29T01:07:28;5.00;99.90
9043;DHT22;4556;49.150;8.808;2022-09-29T01:09:56;5.90;99.90
9043;DHT22;4556;49.150;8.808;2022-09-29T01:12:23;5.10;99.90
9043;DHT22;4556;49.150;8.808;2022-09-29T01:14:52;5.10;99.90
9043;DHT22;4556;49.150;8.808;2022-09-29T01:17:21;5.20;99.90
9043;DHT22;4556;49.150;8.808;2022-09-29T01:19:57;5.30;99.90
9043;DHT22;4556;49.150;8.808;2022-09-29T01:25:50;5.40;99.90
9043;DHT22;4556;49.150;8.808;2022-09-29T01:28:46;5.50;99.90
9043;DHT22;4556;49.150;8.808;2022-09-29T01:31:22;5.50;99.90
9043;DHT22;4556;49.150;8.808;2022-09-29T01:34:02;5.90;99.90
9043;DHT22;4556;49.150;8.808;2022-09-29T01:36:38;5.60;99.90
9043;DHT22;4556;49.150;8.808;2022-09-29T01:39:13;5.60;99.90
9043;DHT22;4556;49.150;8.808;2022-09-29T01:41:45;6.10;99.90
9043;DHT22;4556;49.150;8.808;2022-09-29T01:44:20;7.00;99.90
9043;DHT22;4556;49.150;8.808;2022-09-29T01:46:51;7.20;99.90
9043;DHT22;4556;49.150;8.808;2022-09-29T01:49:20;7.10;99.90
9043;DHT22;4556;49.150;8.808;2022-09-29T01:51:53;8.90;99.90
9043;DHT22;4556;49.150;8.808;2022-09-29T01:54:23;7.10;99.90
9043;DHT22;4556;49.150;8.808;2022-09-29T01:56:53;7.60;99.90
9043;DHT22;4556;49.150;8.808;2022-09-29T01:59:25;8.60;99.90
9043;DHT22;4556;49.150;8.808;2022-09-29T02:01:58;8.60;99.90
9043;DHT22;4556;49.150;8.808;2022-09-29T02:04:30;8.40;99.90
9043;DHT22;4556;49.150;8.808;2022-09-29T02:07:03;6.40;99.90
9043;DHT22;4556;49.150;8.808;2022-09-29T02:09:35;7.50;99.90
9043;DHT22;4556;49.150;8.808;2022-09-29T02:12:04;9.50;99.90
9043;DHT22;4556;49.150;8.808;2022-09-29T02:14:36;6.40;99.90
9043;DHT22;4556;49.150;8.808;2022-09-29T02:17:09;8.80;99.90
9043;DHT22;4556;49.150;8.808;2022-09-29T02:19:44;7.10;99.90
9043;DHT22;4556;49.150;8.808;2022-09-29T02:22:12;6.50;99.90
9043;DHT22;4556;49.150;8.808;2022-09-29T02:24:39;8.40;99.90
9043;DHT22;4556;49.150;8.808;2022-09-29T02:27:07;6.70;99.90
9043;DHT22;4556;49.150;8.808;2022-09-29T02:29:35;6.80;99.90
9043;DHT22;4556;49.150;8.808;2022-09-29T02:32:04;5.10;99.90
9043;DHT22;4556;49.150;8.808;2022-09-29T02:34:37;9.20;99.90
9043;DHT22;4556;49.150;8.808;2022-09-29T02:37:18;9.90;99.90
9043;DHT22;4556;49.150;8.808;2022-09-29T02:39:53;6.80;99.90
9043;DHT22;4556;49.150;8.808;2022-09-29T02:42:28;7.50;99.90
9043;DHT22;4556;49.150;8.808;2022-09-29T02:45:10;6.70;99.90
9043;DHT22;4556;49.150;8.808;2022-09-29T02:50:49;6.70;99.90
9043;DHT22;4556;49.150;8.808;2022-09-29T02:53:28;6.80;99.90
9043;DHT22;4556;49.150;8.808;2022-09-29T02:56:03;6.80;99.90
9043;DHT22;4556;49.150;8.808;2022-09-29T02:58:38;6.80;99.90
9043;DHT22;4556;49.150;8.808;2022-09-29T03:01:08;7.30;99.90
9043;DHT22;4556;49.150;8.808;2022-09-29T03:03:36;6.90;99.90
9043;DHT22;4556;49.150;8.808;2022-09-29T03:06:04;6.70;99.90
9043;DHT22;4556;49.150;8.808;2022-09-29T03:08:30;6.70;99.90
9043;DHT22;4556;49.150;8.808;2022-09-29T03:10:57;6.80;99.90
9043;DHT22;4556;49.150;8.808;2022-09-29T03:13:25;8.30;99.90
9043;DHT22;4556;49.150;8.808;2022-09-29T03:15:55;6.70;99.90
9043;DHT22;4556;49.150;8.808;2022-09-29T03:18:22;6.60;99.90
9043;DHT22;4556;49.150;8.808;2022-09-29T03:20:52;9.90;99.90
9043;DHT22;4556;49.150;8.808;2022-09-29T03:23:19;6.80;99.90
9043;DHT22;4556;49.150;8.808;2022-09-29T03:25:46;7.70;99.90
9043;DHT22;4556;49.150;8.808;2022-09-29T03:28:14;8.00;99.90
9043;DHT22;4556;49.150;8.808;2022-09-29T03:30:42;6.90;99.90
9043;DHT22;4556;49.150;8.808;2022-09-29T03:33:09;6.50;99.90
9043;DHT22;4556;49.150;8.808;2022-09-29T03:35:36;7.80;99.90
9043;DHT22;4556;49.150;8.808;2022-09-29T03:38:05;6.90;99.90
9043;DHT22;4556;49.150;8.808;2022-09-29T03:40:32;6.30;99.90
9043;DHT22;4556;49.150;8.808;2022-09-29T03:42:59;7.10;99.90
9043;DHT22;4556;49.150;8.808;2022-09-29T03:45:26;7.20;99.90
9043;DHT22;4556;49.150;8.808;2022-09-29T03:47:53;7.50;99.90
9043;DHT22;4556;49.150;8.808;2022-09-29T03:50:20;7.80;99.90
9043;DHT22;4556;49.150;8.808;2022-09-29T03:52:47;6.40;99.90
9043;DHT22;4556;49.150;8.808;2022-09-29T03:55:15;6.30;99.90
9043;DHT22;4556;49.150;8.808;2022-09-29T03:57:44;7.20;99.90
9043;DHT22;4556;49.150;8.808;2022-09-29T04:00:13;6.10;99.90
9043;DHT22;4556;49.150;8.808;2022-09-29T04:02:40;6.30;99.90
9043;DHT22;4556;49.150;8.808;2022-09-29T04:05:07;6.30;99.90
9043;DHT22;4556;49.150;8.808;2022-09-29T04:07:34;6.20;99.90
9043;DHT22;4556;49.150;8.808;2022-09-29T04:10:01;7.40;99.90
9043;DHT22;4556;49.150;8.808;2022-09-29T04:12:30;6.20;99.90
9043;DHT22;4556;49.150;8.808;2022-09-29T04:14:57;7.00;99.90
9043;DHT22;4556;49.150;8.808;2022-09-29T04:17:24;6.20;99.90
9043;DHT22;4556;49.150;8.808;2022-09-29T04:19:52;6.10;99.90
9043;DHT22;4556;49.150;8.808;2022-09-29T04:22:18;6.40;99.90
9043;DHT22;4556;49.150;8.808;2022-09-29T04:24:46;6.10;99.90
9043;DHT22;4556;49.150;8.808;2022-09-29T04:27:13;7.60;99.90
9043;DHT22;4556;49.150;8.808;2022-09-29T04:29:41;7.20;99.90
9043;DHT22;4556;49.150;8.808;2022-09-29T04:32:08;9.10;99.90
9043;DHT22;4556;49.150;8.808;2022-09-29T04:34:35;7.90;99.90
9043;DHT22;4556;49.150;8.808;2022-09-29T04:37:02;6.40;99.90
9043;DHT22;4556;49.150;8.808;2022-09-29T04:39:29;8.80;99.90
9043;DHT22;4556;49.150;8.808;2022-09-29T04:41:56;8.80;99.90
9043;DHT22;4556;49.150;8.808;2022-09-29T04:44:23;6.40;99.90
9043;DHT22;4556;49.150;8.808;2022-09-29T04:46:51;6.40;99.90
9043;DHT22;4556;49.150;8.808;2022-09-29T04:49:19;7.60;99.90
9043;DHT22;4556;49.150;8.808;2022-09-29T04:51:46;9.50;99.90
9043;DHT22;4556;49.150;8.808;2022-09-29T04:54:13;7.10;99.90
9043;DHT22;4556;49.150;8.808;2022-09-29T04:56:40;7.10;99.90
9043;DHT22;4556;49.150;8.808;2022-09-29T04:59:08;6.80;99.90
9043;DHT22;4556;49.150;8.808;2022-09-29T05:01:36;6.60;99.90
9043;DHT22;4556;49.150;8.808;2022-09-29T05:04:04;5.90;99.90
9043;DHT22;4556;49.150;8.808;2022-09-29T05:06:32;7.80;99.90
9043;DHT22;4556;49.150;8.808;2022-09-29T05:09:09;5.70;99.90
9043;DHT22;4556;49.150;8.808;2022-09-29T05:11:36;5.80;99.90
9043;DHT22;4556;49.150;8.808;2022-09-29T05:14:03;5.70;99.90
9043;DHT22;4556;49.150;8.808;2022-09-29T05:16:31;7.60;99.90
9043;DHT22;4556;49.150;8.808;2022-09-29T05:18:58;7.80;99.90
9043;DHT22;4556;49.150;8.808;2022-09-29T05:21:26;8.10;99.90
9043;DHT22;4556;49.150;8.808;2022-09-29T05:23:53;5.80;99.90
9043;DHT22;4556;49.150;8.808;2022-09-29T05:26:20;7.00;99.90
9043;DHT22;4556;49.150;8.808;2022-09-29T05:28:49;7.30;99.90
9043;DHT22;4556;49.150;8.808;2022-09-29T05:31:16;6.80;99.90
9043;DHT22;4556;49.150;8.808;2022-09-29T05:33:43;7.90;99.90
9043;DHT22;4556;49.150;8.808;2022-09-29T05:36:11;6.60;99.90
9043;DHT22;4556;49.150;8.808;2022-09-29T05:38:40;6.70;99.90
9043;DHT22;4556;49.150;8.808;2022-09-29T05:41:09;6.90;99.90
9043;DHT22;4556;49.150;8.808;2022-09-29T05:43:36;5.40;99.90
9043;DHT22;4556;49.150;8.808;2022-09-29T05:46:04;5.50;99.90
9043;DHT22;4556;49.150;8.808;2022-09-29T05:48:32;5.90;99.90
9043;DHT22;4556;49.150;8.808;2022-09-29T05:51:05;8.00;99.90
9043;DHT22;4556;49.150;8.808;2022-09-29T05:53:32;6.70;99.90
9043;DHT22;4556;49.150;8.808;2022-09-29T05:56:05;5.70;99.90
9043;DHT22;4556;49.150;8.808;2022-09-29T05:58:32;5.80;99.90
9043;DHT22;4556;49.150;8.808;2022-09-29T06:01:04;5.80;99.90
9043;DHT22;4556;49.150;8.808;2022-09-29T06:03:32;5.80;99.90
9043;DHT22;4556;49.150;8.808;2022-09-29T06:06:07;5.80;99.90
9043;DHT22;4556;49.150;8.808;2022-09-29T06:08:37;7.40;99.90
9043;DHT22;4556;49.150;8.808;2022-09-29T06:11:07;5.90;99.90
9043;DHT22;4556;49.150;8.808;2022-09-29T06:13:41;6.00;99.90
9043;DHT22;4556;49.150;8.808;2022-09-29T06:16:10;6.50;99.90
9043;DHT22;4556;49.150;8.808;2022-09-29T06:18:37;7.20;99.90
9043;DHT22;4556;49.150;8.808;2022-09-29T06:21:06;6.10;99.90
9043;DHT22;4556;49.150;8.808;2022-09-29T06:23:33;6.30;99.90
9043;DHT22;4556;49.150;8.808;2022-09-29T06:26:05;6.40;99.90
9043;DHT22;4556;49.150;8.808;2022-09-29T06:28:34;6.90;99.90
9043;DHT22;4556;49.150;8.808;2022-09-29T06:31:03;9.20;99.90
9043;DHT22;4556;49.150;8.808;2022-09-29T06:33:32;6.70;99.90
9043;DHT22;4556;49.150;8.808;2022-09-29T06:36:01;6.70;99.90
9043;DHT22;4556;49.150;8.808;2022-09-29T06:38:46;6.80;99.90
9043;DHT22;4556;49.150;8.808;2022-09-29T06:41:13;6.80;99.90
9043;DHT22;4556;49.150;8.808;2022-09-29T06:43:42;6.90;99.90
9043;DHT22;4556;49.150;8.808;2022-09-29T06:46:09;8.00;99.90
9043;DHT22;4556;49.150;8.808;2022-09-29T06:48:36;9.40;99.90
9043;DHT22;4556;49.150;8.808;2022-09-29T06:51:06;7.10;99.90
9043;DHT22;4556;49.150;8.808;2022-09-29T06:53:33;7.20;99.90
9043;DHT22;4556;49.150;8.808;2022-09-29T06:56:00;7.80;99.90
9043;DHT22;4556;49.150;8.808;2022-09-29T06:58:27;7.40;99.90
9043;DHT22;4556;49.150;8.808;2022-09-29T07:00:59;7.50;99.90
9043;DHT22;4556;49.150;8.808;2022-09-29T07:03:26;7.60;99.90
9043;DHT22;4556;49.150;8.808;2022-09-29T07:05:53;8.80;99.90
9043;DHT22;4556;49.150;8.808;2022-09-29T07:08:20;7.80;99.90
9043;DHT22;4556;49.150;8.808;2022-09-29T07:10:47;11.10;99.90
9043;DHT22;4556;49.150;8.808;2022-09-29T07:13:14;8.20;99.90
9043;DHT22;4556;49.150;8.808;2022-09-29T07:15:41;8.10;99.90
9043;DHT22;4556;49.150;8.808;2022-09-29T07:18:09;8.70;99.90
9043;DHT22;4556;49.150;8.808;2022-09-29T07:20:36;10.50;99.90
9043;DHT22;4556;49.150;8.808;2022-09-29T07:23:04;9.70;99.90
9043;DHT22;4556;49.150;8.808;2022-09-29T07:25:31;11.50;99.90
9043;DHT22;4556;49.150;8.808;2022-09-29T07:27:59;9.60;99.90
9043;DHT22;4556;49.150;8.808;2022-09-29T07:30:27;8.50;99.90
9043;DHT22;4556;49.150;8.808;2022-09-29T07:32:54;8.60;99.90
9043;DHT22;4556;49.150;8.808;2022-09-29T07:35:23;9.60;99.90
9043;DHT22;4556;49.150;8.808;2022-09-29T07:37:51;8.70;99.90
9043;DHT22;4556;49.150;8.808;2022-09-29T07:40:18;11.40;99.90
9043;DHT22;4556;49.150;8.808;2022-09-29T07:42:46;8.90;99.90
9043;DHT22;4556;49.150;8.808;2022-09-29T07:45:13;11.70;99.90
9043;DHT22;4556;49.150;8.808;2022-09-29T07:47:40;9.00;99.90
9043;DHT22;4556;49.150;8.808;2022-09-29T07:50:08;9.00;99.90
9043;DHT22;4556;49.150;8.808;2022-09-29T07:52:37;9.10;99.90
9043;DHT22;4556;49.150;8.808;2022-09-29T07:55:05;9.30;99.90
9043;DHT22;4556;49.150;8.808;2022-09-29T07:57:32;9.30;99.90
9043;DHT22;4556;49.150;8.808;2022-09-29T07:59:59;9.20;99.90
9043;DHT22;4556;49.150;8.808;2022-09-29T08:02:26;8.10;99.90
9043;DHT22;4556;49.150;8.808;2022-09-29T08:04:53;10.10;99.90
9043;DHT22;4556;49.150;8.808;2022-09-29T08:07:20;9.60;99.90
9043;DHT22;4556;49.150;8.808;2022-09-29T08:09:48;9.70;99.90
9043;DHT22;4556;49.150;8.808;2022-09-29T08:12:15;9.90;99.90
9043;DHT22;4556;49.150;8.808;2022-09-29T08:14:42;9.90;99.90
9043;DHT22;4556;49.150;8.808;2022-09-29T08:17:09;10.50;99.90
9043;DHT22;4556;49.150;8.808;2022-09-29T08:19:36;12.30;99.90
9043;DHT22;4556;49.150;8.808;2022-09-29T08:22:03;10.00;99.90
9043;DHT22;4556;49.150;8.808;2022-09-29T08:24:30;10.40;99.90
9043;DHT22;4556;49.150;8.808;2022-09-29T08:29:26;10.70;99.90
9043;DHT22;4556;49.150;8.808;2022-09-29T08:31:53;10.90;99.90
9043;DHT22;4556;49.150;8.808;2022-09-29T08:34:21;11.10;99.90
9043;DHT22;4556;49.150;8.808;2022-09-29T08:36:48;12.80;99.90
9043;DHT22;4556;49.150;8.808;2022-09-29T08:39:16;11.10;99.90
9043;DHT22;4556;49.150;8.808;2022-09-29T08:41:56;13.10;99.90
9043;DHT22;4556;49.150;8.808;2022-09-29T08:44:33;14.60;99.90
9043;DHT22;4556;49.150;8.808;2022-09-29T08:47:03;11.80;99.90
9043;DHT22;4556;49.150;8.808;2022-09-29T08:49:34;14.80;99.90
9043;DHT22;4556;49.150;8.808;2022-09-29T08:52:06;11.80;99.90
9043;DHT22;4556;49.150;8.808;2022-09-29T08:54:38;12.70;99.90
9043;DHT22;4556;49.150;8.808;2022-09-29T08:57:10;11.50;99.90
9043;DHT22;4556;49.150;8.808;2022-09-29T08:59:46;14.50;99.90
9043;DHT22;4556;49.150;8.808;2022-09-29T09:02:37;10.00;99.90
9043;DHT22;4556;49.150;8.808;2022-09-29T09:05:14;11.40;99.90
9043;DHT22;4556;49.150;8.808;2022-09-29T09:07:50;11.40;99.90
9043;DHT22;4556;49.150;8.808;2022-09-29T09:10:26;12.30;99.90
9043;DHT22;4556;49.150;8.808;2022-09-29T09:16:00;11.70;99.90
9043;DHT22;4556;49.150;8.808;2022-09-29T09:18:50;11.90;99.90
9043;DHT22;4556;49.150;8.808;2022-09-29T09:21:26;11.90;99.90
9043;DHT22;4556;49.150;8.808;2022-09-29T09:23:56;14.50;99.90
9043;DHT22;4556;49.150;8.808;2022-09-29T09:26:31;15.20;99.90
9043;DHT22;4556;49.150;8.808;2022-09-29T09:29:02;11.90;99.90
9043;DHT22;4556;49.150;8.808;2022-09-29T09:31:40;12.00;99.90
9043;DHT22;4556;49.150;8.808;2022-09-29T09:34:14;13.80;99.90
9043;DHT22;4556;49.150;8.808;2022-09-29T09:36:46;12.10;99.90
9043;DHT22;4556;49.150;8.808;2022-09-29T09:39:19;12.00;99.90
9043;DHT22;4556;49.150;8.808;2022-09-29T09:41:50;12.00;99.90
9043;DHT22;4556;49.150;8.808;2022-09-29T09:44:21;13.70;99.90
9043;DHT22;4556;49.150;8.808;2022-09-29T09:46:55;12.40;99.90
9043;DHT22;4556;49.150;8.808;2022-09-29T09:49:25;12.60;99.90
9043;DHT22;4556;49.150;8.808;2022-09-29T09:51:56;13.00;99.90
9043;DHT22;4556;49.150;8.808;2022-09-29T09:54:29;13.00;99.90
9043;DHT22;4556;49.150;8.808;2022-09-29T10:00:09;12.70;99.90
9043;DHT22;4556;49.150;8.808;2022-09-29T10:02:42;12.60;99.90
9043;DHT22;4556;49.150;8.808;2022-09-29T10:05:11;12.60;99.90
9043;DHT22;4556;49.150;8.808;2022-09-29T10:07:39;12.60;99.90
9043;DHT22;4556;49.150;8.808;2022-09-29T10:10:15;12.60;99.90
9043;DHT22;4556;49.150;8.808;2022-09-29T10:12:42;12.60;99.90
9043;DHT22;4556;49.150;8.808;2022-09-29T10:15:17;12.70;99.90
9043;DHT22;4556;49.150;8.808;2022-09-29T10:17:53;12.60;99.90
9043;DHT22;4556;49.150;8.808;2022-09-29T10:20:31;15.60;99.90
9043;DHT22;4556;49.150;8.808;2022-09-29T10:23:28;12.60;99.90
9043;DHT22;4556;49.150;8.808;2022-09-29T10:25:59;12.70;99.90
9043;DHT22;4556;49.150;8.808;2022-09-29T10:28:29;12.80;99.90
9043;DHT22;4556;49.150;8.808;2022-09-29T10:31:02;13.70;99.90
9043;DHT22;4556;49.150;8.808;2022-09-29T10:33:30;13.10;99.90
9043;DHT22;4556;49.150;8.808;2022-09-29T10:36:06;13.10;99.90
9043;DHT22;4556;49.150;8.808;2022-09-29T10:38:36;15.30;99.90
9043;DHT22;4556;49.150;8.808;2022-09-29T10:41:05;10.60;99.90
9043;DHT22;4556;49.150;8.808;2022-09-29T10:43:36;11.90;99.90
9043;DHT22;4556;49.150;8.808;2022-09-29T10:46:49;15.80;99.90
9043;DHT22;4556;49.150;8.808;2022-09-29T10:49:19;14.80;99.90
9043;DHT22;4556;49.150;8.808;2022-09-29T10:51:54;13.30;99.90
9043;DHT22;4556;49.150;8.808;2022-09-29T10:54:23;13.30;99.90
9043;DHT22;4556;49.150;8.808;2022-09-29T10:56:52;13.50;99.90
9043;DHT22;4556;49.150;8.808;2022-09-29T10:59:21;13.50;99.90
9043;DHT22;4556;49.150;8.808;2022-09-29T11:01:50;13.30;99.90
9043;DHT22;4556;49.150;8.808;2022-09-29T11:04:23;12.70;99.90
9043;DHT22;4556;49.150;8.808;2022-09-29T11:06:51;13.40;99.90
9043;DHT22;4556;49.150;8.808;2022-09-29T11:09:36;13.50;99.90
9043;DHT22;4556;49.150;8.808;2022-09-29T11:12:03;13.40;99.90
9043;DHT22;4556;49.150;8.808;2022-09-29T11:14:38;13.30;99.90
9043;DHT22;4556;49.150;8.808;2022-09-29T11:17:20;13.30;99.90
9043;DHT22;4556;49.150;8.808;2022-09-29T11:19:49;13.30;99.90
9043;DHT22;4556;49.150;8.808;2022-09-29T11:22:34;13.50;99.90
9043;DHT22;4556;49.150;8.808;2022-09-29T11:25:20;11.40;99.90
9043;DHT22;4556;49.150;8.808;2022-09-29T11:28:01;13.60;99.90
9043;DHT22;4556;49.150;8.808;2022-09-29T11:30:39;14.90;99.90
9043;DHT22;4556;49.150;8.808;2022-09-29T11:33:20;15.80;99.90
9043;DHT22;4556;49.150;8.808;2022-09-29T11:35:59;13.70;99.90
9043;DHT22;4556;49.150;8.808;2022-09-29T11:38:41;13.70;99.90
9043;DHT22;4556;49.150;8.808;2022-09-29T11:41:20;13.60;99.90
9043;DHT22;4556;49.150;8.808;2022-09-29T11:43:52;15.50;99.90
9043;DHT22;4556;49.150;8.808;2022-09-29T11:46:28;13.90;99.90
9043;DHT22;4556;49.150;8.808;2022-09-29T11:49:11;13.60;99.90
9043;DHT22;4556;49.150;8.808;2022-09-29T11:51:55;13.60;99.90
9043;DHT22;4556;49.150;8.808;2022-09-29T11:54:42;15.00;99.90
9043;DHT22;4556;49.150;8.808;2022-09-29T11:57:16;13.80;99.90
9043;DHT22;4556;49.150;8.808;2022-09-29T12:00:02;14.90;99.90
9043;DHT22;4556;49.150;8.808;2022-09-29T12:02:55;14.30;99.90
9043;DHT22;4556;49.150;8.808;2022-09-29T12:05:33;13.70;99.90
9043;DHT22;4556;49.150;8.808;2022-09-29T12:08:15;13.90;99.90
9043;DHT22;4556;49.150;8.808;2022-09-29T12:10:54;14.00;99.90
9043;DHT22;4556;49.150;8.808;2022-09-29T12:13:32;14.90;99.90
9043;DHT22;4556;49.150;8.808;2022-09-29T12:16:06;14.10;99.90
9043;DHT22;4556;49.150;8.808;2022-09-29T12:18:38;14.10;99.90
9043;DHT22;4556;49.150;8.808;2022-09-29T12:21:07;14.00;99.90
9043;DHT22;4556;49.150;8.808;2022-09-29T12:23:39;13.90;99.90
9043;DHT22;4556;49.150;8.808;2022-09-29T12:26:12;15.40;99.90
9043;DHT22;4556;49.150;8.808;2022-09-29T12:28:43;13.90;99.90
9043;DHT22;4556;49.150;8.808;2022-09-29T12:31:14;13.80;99.90
9043;DHT22;4556;49.150;8.808;2022-09-29T12:33:45;16.40;99.90
9043;DHT22;4556;49.150;8.808;2022-09-29T12:36:40;16.80;99.90
9043;DHT22;4556;49.150;8.808;2022-09-29T12:39:20;14.10;99.90
9043;DHT22;4556;49.150;8.808;2022-09-29T12:41:52;14.10;99.90
9043;DHT22;4556;49.150;8.808;2022-09-29T12:44:27;14.10;99.90
9043;DHT22;4556;49.150;8.808;2022-09-29T12:47:02;14.00;99.90
9043;DHT22;4556;49.150;8.808;2022-09-29T12:49:36;13.90;99.90
9043;DHT22;4556;49.150;8.808;2022-09-29T12:52:10;15.30;99.90
9043;DHT22;4556;49.150;8.808;2022-09-29T12:54:47;13.90;99.90
9043;DHT22;4556;49.150;8.808;2022-09-29T12:57:17;15.40;99.90
9043;DHT22;4556;49.150;8.808;2022-09-29T12:59:51;14.00;99.90
9043;DHT22;4556;49.150;8.808;2022-09-29T13:02:44;17.20;99.90
9043;DHT22;4556;49.150;8.808;2022-09-29T13:05:31;14.00;99.90
9043;DHT22;4556;49.150;8.808;2022-09-29T13:11:22;14.30;99.90
9043;DHT22;4556;49.150;8.808;2022-09-29T13:14:09;14.30;99.90
9043;DHT22;4556;49.150;8.808;2022-09-29T13:16:56;14.10;99.90
9043;DHT22;4556;49.150;8.808;2022-09-29T13:19:49;15.50;99.90
9043;DHT22;4556;49.150;8.808;2022-09-29T13:22:39;15.90;99.90
9043;DHT22;4556;49.150;8.808;2022-09-29T13:25:16;14.00;99.90
9043;DHT22;4556;49.150;8.808;2022-09-29T13:27:50;16.20;99.90
9043;DHT22;4556;49.150;8.808;2022-09-29T13:30:19;13.90;99.90
9043;DHT22;4556;49.150;8.808;2022-09-29T13:32:48;14.50;99.90
9043;DHT22;4556;49.150;8.808;2022-09-29T13:35:19;14.30;99.90
9043;DHT22;4556;49.150;8.808;2022-09-29T13:37:50;14.30;99.90
9043;DHT22;4556;49.150;8.808;2022-09-29T13:40:21;14.60;99.90
9043;DHT22;4556;49.150;8.808;2022-09-29T13:42:52;14.60;99.90
9043;DHT22;4556;49.150;8.808;2022-09-29T13:45:41;14.40;99.90
9043;DHT22;4556;49.150;8.808;2022-09-29T13:48:34;14.20;99.90
9043;DHT22;4556;49.150;8.808;2022-09-29T13:51:28;14.20;99.90
9043;DHT22;4556;49.150;8.808;2022-09-29T13:54:28;14.30;99.90
9043;DHT22;4556;49.150;8.808;2022-09-29T13:57:17;14.30;99.90
9043;DHT22;4556;49.150;8.808;2022-09-29T14:02:43;14.30;99.90
9043;DHT22;4556;49.150;8.808;2022-09-29T14:08:26;14.60;99.90
9043;DHT22;4556;49.150;8.808;2022-09-29T14:11:01;14.50;99.90
9043;DHT22;4556;49.150;8.808;2022-09-29T14:13:31;14.40;99.90
9043;DHT22;4556;49.150;8.808;2022-09-29T14:16:17;14.50;99.90
9043;DHT22;4556;49.150;8.808;2022-09-29T14:18:52;14.50;99.90
9043;DHT22;4556;49.150;8.808;2022-09-29T14:21:51;14.40;99.90
9043;DHT22;4556;49.150;8.808;2022-09-29T14:24:41;14.40;99.90
9043;DHT22;4556;49.150;8.808;2022-09-29T14:27:29;14.20;99.90
9043;DHT22;4556;49.150;8.808;2022-09-29T14:30:15;14.10;99.90
9043;DHT22;4556;49.150;8.808;2022-09-29T14:32:51;14.20;99.90
9043;DHT22;4556;49.150;8.808;2022-09-29T14:35:24;14.20;99.90
9043;DHT22;4556;49.150;8.808;2022-09-29T14:38:00;14.60;99.90
9043;DHT22;4556;49.150;8.808;2022-09-29T14:40:28;14.30;99.90
9043;DHT22;4556;49.150;8.808;2022-09-29T14:43:17;14.40;99.90
9043;DHT22;4556;49.150;8.808;2022-09-29T14:46:00;14.20;99.90
9043;DHT22;4556;49.150;8.808;2022-09-29T14:49:00;14.20;99.90
9043;DHT22;4556;49.150;8.808;2022-09-29T14:51:51;14.10;99.90
9043;DHT22;4556;49.150;8.808;2022-09-29T14:54:30;14.00;99.90
9043;DHT22;4556;49.150;8.808;2022-09-29T14:57:12;13.90;99.90
9043;DHT22;4556;49.150;8.808;2022-09-29T14:59:55;13.80;99.90
9043;DHT22;4556;49.150;8.808;2022-09-29T15:02:27;13.80;99.90
9043;DHT22;4556;49.150;8.808;2022-09-29T15:04:56;13.60;99.90
9043;DHT22;4556;49.150;8.808;2022-09-29T15:07:25;15.80;99.90
9043;DHT22;4556;49.150;8.808;2022-09-29T15:09:54;13.60;99.90
9043;DHT22;4556;49.150;8.808;2022-09-29T15:12:23;13.60;99.90
9043;DHT22;4556;49.150;8.808;2022-09-29T15:14:51;14.90;99.90
9043;DHT22;4556;49.150;8.808;2022-09-29T15:17:30;13.40;99.90
9043;DHT22;4556;49.150;8.808;2022-09-29T15:20:09;15.40;99.90
9043;DHT22;4556;49.150;8.808;2022-09-29T15:23:00;13.40;99.90
9043;DHT22;4556;49.150;8.808;2022-09-29T15:25:31;13.30;99.90
9043;DHT22;4556;49.150;8.808;2022-09-29T15:28:01;13.40;99.90
9043;DHT22;4556;49.150;8.808;2022-09-29T15:30:29;13.40;99.90
9043;DHT22;4556;49.150;8.808;2022-09-29T15:33:13;15.10;99.90
9043;DHT22;4556;49.150;8.808;2022-09-29T15:35:47;13.40;99.90
9043;DHT22;4556;49.150;8.808;2022-09-29T15:38:27;13.30;99.90
9043;DHT22;4556;49.150;8.808;2022-09-29T15:40:59;13.50;99.90
9043;DHT22;4556;49.150;8.808;2022-09-29T15:43:29;15.10;99.90
9043;DHT22;4556;49.150;8.808;2022-09-29T15:46:00;15.40;99.90
9043;DHT22;4556;49.150;8.808;2022-09-29T15:48:29;13.40;99.90
9043;DHT22;4556;49.150;8.808;2022-09-29T15:50:58;13.30;99.90
9043;DHT22;4556;49.150;8.808;2022-09-29T15:53:26;13.30;99.90
9043;DHT22;4556;49.150;8.808;2022-09-29T15:55:55;13.20;99.90
9043;DHT22;4556;49.150;8.808;2022-09-29T15:58:41;13.20;99.90
9043;DHT22;4556;49.150;8.808;2022-09-29T16:01:11;13.20;99.90
9043;DHT22;4556;49.150;8.808;2022-09-29T16:03:42;13.20;99.90
9043;DHT22;4556;49.150;8.808;2022-09-29T16:06:20;13.10;99.90
9043;DHT22;4556;49.150;8.808;2022-09-29T16:08:51;13.20;99.90
9043;DHT22;4556;49.150;8.808;2022-09-29T16:11:22;13.10;99.90
9043;DHT22;4556;49.150;8.808;2022-09-29T16:13:53;13.10;99.90
9043;DHT22;4556;49.150;8.808;2022-09-29T16:16:32;13.00;99.90
9043;DHT22;4556;49.150;8.808;2022-09-29T16:19:07;12.90;99.90
9043;DHT22;4556;49.150;8.808;2022-09-29T16:21:37;12.90;99.90
9043;DHT22;4556;49.150;8.808;2022-09-29T16:24:13;12.70;99.90
9043;DHT22;4556;49.150;8.808;2022-09-29T16:26:45;12.70;99.90
9043;DHT22;4556;49.150;8.808;2022-09-29T16:29:28;12.80;99.90
9043;DHT22;4556;49.150;8.808;2022-09-29T16:31:56;14.00;99.90
9043;DHT22;4556;49.150;8.808;2022-09-29T16:34:30;12.30;99.90
9043;DHT22;4556;49.150;8.808;2022-09-29T16:37:00;12.20;99.90
9043;DHT22;4556;49.150;8.808;2022-09-29T16:39:30;12.10;99.90
9043;DHT22;4556;49.150;8.808;2022-09-29T16:42:00;13.50;99.90
9043;DHT22;4556;49.150;8.808;2022-09-29T16:44:32;14.50;99.90
9043;DHT22;4556;49.150;8.808;2022-09-29T16:47:03;14.50;99.90
9043;DHT22;4556;49.150;8.808;2022-09-29T16:49:44;14.10;99.90
9043;DHT22;4556;49.150;8.808;2022-09-29T16:52:16;11.70;99.90
9043;DHT22;4556;49.150;8.808;2022-09-29T16:54:45;11.70;99.90
9043;DHT22;4556;49.150;8.808;2022-09-29T16:57:23;11.70;99.90
9043;DHT22;4556;49.150;8.808;2022-09-29T16:59:52;11.70;99.90
9043;DHT22;4556;49.150;8.808;2022-09-29T17:02:20;13.20;99.90
9043;DHT22;4556;49.150;8.808;2022-09-29T17:04:48;11.80;99.90
9043;DHT22;4556;49.150;8.808;2022-09-29T17:07:18;11.50;99.90